Time;durP1;ratioP1;P1;durP2;ratioP2;P2;SDS_P1;SDS_P2;PMS_P1;PMS_P2;Temp;Humidity;BMP_temperature;BMP_pressure;BME280_temperature;BME280_humidity;BME280_pressure;Samples;Min_cycle;Max_cycle;Signal;HPM_P1;HPM_P2
2022/05/20 00:00:30;;;;;;;1.55;1.40;;;;;;;24.76;36.91;97876.94;5015841;28;20033;-34
2022/05/20 00:02:56;;;;;;;3.22;1.70;;;;;;;24.76;36.72;97878.97;5015757;28;20424;-33
2022/05/20 00:05:21;;;;;;;3.05;1.42;;;;;;;24.78;36.71;97879.25;5015774;28;20026;-34
2022/05/20 00:07:47;;;;;;;2.22;1.58;;;;;;;24.80;36.57;97873.97;5015578;28;20045;-35
2022/05/20 00:10:17;;;;;;;3.42;1.58;;;;;;;24.78;36.67;97884.78;5015122;28;20140;-34
2022/05/20 00:12:44;;;;;;;2.80;1.38;;;;;;;24.77;36.97;97889.56;5015146;28;20072;-34
2022/05/20 00:15:12;;;;;;;1.92;1.50;;;;;;;24.69;36.82;97889.25;5015485;28;20022;-33
2022/05/20 00:17:37;;;;;;;2.75;1.88;;;;;;;24.75;36.90;97885.75;5015604;28;20365;-33
2022/05/20 00:20:05;;;;;;;2.45;1.60;;;;;;;24.69;36.92;97889.25;5015523;28;20033;-33
2022/05/20 00:22:31;;;;;;;3.80;1.60;;;;;;;24.69;36.89;97886.47;5015365;28;20026;-33
2022/05/20 00:27:40;;;;;;;4.20;1.50;;;;;;;24.63;36.77;97880.06;5015064;28;20403;-34
2022/05/20 00:36:49;;;;;;;2.67;1.38;;;;;;;24.62;36.79;97889.63;5013863;28;20455;-34
2022/05/20 00:39:15;;;;;;;4.10;1.73;;;;;;;24.64;36.77;97887.16;5014296;28;20034;-33
2022/05/20 00:41:40;;;;;;;2.80;1.40;;;;;;;24.60;36.70;97885.84;5014901;28;20026;-34
2022/05/20 00:44:06;;;;;;;2.47;1.60;;;;;;;24.62;36.70;97892.41;5014945;28;20066;-34
2022/05/20 00:46:31;;;;;;;2.42;1.63;;;;;;;24.56;36.96;97888.81;5014768;28;20026;-33
2022/05/20 00:49:13;;;;;;;3.47;1.60;;;;;;;24.60;36.83;97891.41;5014734;28;20465;-33
2022/05/20 00:51:43;;;;;;;2.30;1.50;;;;;;;24.60;36.94;97897.69;5014506;28;20097;-33
2022/05/20 00:54:20;;;;;;;3.05;2.20;;;;;;;24.62;36.84;97903.50;5014758;28;20112;-34
2022/05/20 00:57:03;;;;;;;2.33;1.50;;;;;;;24.58;36.99;97902.97;5014618;28;20057;-33
2022/05/20 00:59:32;;;;;;;3.50;1.70;;;;;;;24.56;36.97;97897.16;5014503;28;20049;-34
2022/05/20 01:02:14;;;;;;;2.35;1.45;;;;;;;24.53;36.99;97900.13;5014691;28;20029;-33
2022/05/20 01:04:41;;;;;;;2.00;1.60;;;;;;;24.52;37.11;97904.13;5014673;28;20034;-34
2022/05/20 01:07:07;;;;;;;2.08;1.23;;;;;;;24.52;36.84;97907.66;5014383;28;20033;-34
2022/05/20 01:09:36;;;;;;;4.35;1.63;;;;;;;24.49;36.93;97905.84;5014350;28;20433;-33
2022/05/20 01:45:50;;;;;;;1.75;1.33;;;;;;;24.36;37.15;97905.44;4629865;28;20180;-33
2022/05/20 02:48:48;;;;;;;5.43;1.45;;;;;;;24.18;36.67;97900.88;4325089;28;20428;-35
2022/05/20 02:51:16;;;;;;;2.33;1.50;;;;;;;24.17;36.97;97906.91;5013615;28;20030;-35
2022/05/20 02:53:43;;;;;;;2.05;1.50;;;;;;;24.17;36.65;97909.66;5013374;28;20037;-36
2022/05/20 02:56:08;;;;;;;2.78;1.60;;;;;;;24.16;36.93;97902.59;5013364;28;20014;-35
2022/05/20 03:04:11;;;;;;;3.22;1.95;;;;;;;24.19;36.36;97909.97;5017176;28;20056;-35
2022/05/20 03:06:46;;;;;;;3.33;1.80;;;;;;;24.11;36.69;97917.16;5032428;28;20014;-34
2022/05/20 03:09:14;;;;;;;2.80;1.80;;;;;;;24.11;36.62;97906.81;5017149;28;20030;-33
2022/05/20 03:11:40;;;;;;;4.32;1.80;;;;;;;24.15;36.61;97912.91;5017483;28;20022;-36
2022/05/20 03:14:08;;;;;;;4.35;2.13;;;;;;;24.10;36.69;97919.16;5017163;28;20026;-34
2022/05/20 03:16:34;;;;;;;2.95;1.67;;;;;;;24.11;36.70;97914.38;5017100;28;20022;-34
2022/05/20 03:26:40;;;;;;;6.70;1.83;;;;;;;24.09;36.57;97919.63;5015262;28;20037;-34
2022/05/20 03:29:05;;;;;;;3.28;1.70;;;;;;;24.08;36.47;97934.75;5016579;28;20037;-34
2022/05/20 04:22:37;;;;;;;3.13;1.80;;;;;;;23.96;36.68;97940.09;3988585;28;21998;-31
2022/05/20 04:25:04;;;;;;;4.38;2.00;;;;;;;23.98;36.87;97948.69;5015281;28;20041;-34
2022/05/20 04:27:30;;;;;;;4.35;2.20;;;;;;;24.02;36.76;97948.50;5015581;28;20046;-34
2022/05/20 04:29:57;;;;;;;5.88;2.42;;;;;;;23.96;36.58;97953.97;5015788;28;20061;-36
2022/05/20 05:13:05;;;;;;;5.18;2.00;;;;;;;23.91;37.07;97982.34;5013591;28;20056;-34
2022/05/20 06:20:03;;;;;;;6.20;2.05;;;;;;;23.88;38.04;98008.22;3929417;28;22207;-33
2022/05/20 06:22:29;;;;;;;5.97;1.80;;;;;;;23.85;37.93;98003.66;5011656;28;20092;-34
2022/05/20 06:24:54;;;;;;;2.80;1.80;;;;;;;23.93;38.06;98004.03;5011485;28;20038;-34
2022/05/20 06:27:20;;;;;;;4.82;2.00;;;;;;;23.91;38.17;98010.03;5011382;28;20096;-34
2022/05/20 06:29:47;;;;;;;2.90;2.00;;;;;;;23.98;38.10;98004.09;5011555;28;20040;-34
2022/05/20 06:32:13;;;;;;;6.55;2.30;;;;;;;23.97;38.21;98005.38;5011667;28;20037;-33
2022/05/20 06:40:10;;;;;;;3.42;2.10;;;;;;;23.79;38.82;98007.56;5011918;28;20041;-34
2022/05/20 06:42:36;;;;;;;3.22;1.77;;;;;;;23.81;38.86;98005.06;5011530;28;20022;-34
2022/05/20 06:45:02;;;;;;;4.38;2.00;;;;;;;23.88;38.83;98013.00;5011422;28;20421;-36
2022/05/20 06:47:28;;;;;;;7.15;2.10;;;;;;;23.79;38.98;98002.78;5011312;28;20070;-35
2022/05/20 06:49:53;;;;;;;7.40;2.17;;;;;;;23.88;39.02;98007.44;5011213;28;20479;-34
2022/05/20 06:52:19;;;;;;;3.17;1.90;;;;;;;23.83;39.27;98008.13;5011213;28;20391;-34
2022/05/20 06:54:44;;;;;;;4.25;2.30;;;;;;;23.87;39.12;98008.69;5011173;28;20129;-34
2022/05/20 06:57:10;;;;;;;3.70;1.95;;;;;;;23.88;38.83;98011.00;5010790;28;20037;-35
2022/05/20 06:59:38;;;;;;;3.92;2.00;;;;;;;23.97;38.77;98007.38;5010495;28;20092;-34
2022/05/20 07:02:04;;;;;;;3.22;1.90;;;;;;;23.82;38.78;98007.38;5011091;28;20041;-35
2022/05/20 07:04:29;;;;;;;3.88;2.05;;;;;;;23.82;38.98;98007.38;5011015;28;20042;-34
2022/05/20 07:06:58;;;;;;;4.55;2.15;;;;;;;23.86;38.16;98001.66;5010729;28;20101;-33
2022/05/20 07:09:23;;;;;;;1.92;1.70;;;;;;;23.82;37.93;98004.59;5009683;28;20084;-34
2022/05/20 07:11:49;;;;;;;2.45;1.75;;;;;;;23.65;37.26;98009.06;5010871;28;20026;-35
2022/05/20 07:14:15;;;;;;;3.53;1.75;;;;;;;23.51;34.67;98012.56;5010893;28;20030;-33
2022/05/20 07:16:41;;;;;;;5.10;1.75;;;;;;;23.72;37.04;98008.72;5011006;28;20026;-33
2022/05/20 07:19:06;;;;;;;3.67;1.80;;;;;;;23.65;36.44;98011.84;5011017;28;20399;-35
2022/05/20 07:21:32;;;;;;;4.13;2.05;;;;;;;23.39;36.51;98010.81;5010685;28;20551;-33
2022/05/20 07:23:57;;;;;;;3.35;1.70;;;;;;;23.15;36.51;98011.59;5042309;28;20053;-34
2022/05/20 07:26:23;;;;;;;1.88;1.60;;;;;;;23.42;36.31;98024.47;5010886;28;20018;-33
2022/05/20 07:28:49;;;;;;;2.25;1.30;;;;;;;23.45;35.84;98008.91;5010832;28;20508;-34
2022/05/20 07:31:15;;;;;;;2.55;1.70;;;;;;;23.26;36.00;98011.81;5010873;28;20033;-33
2022/05/20 07:33:43;;;;;;;1.88;1.55;;;;;;;23.05;35.18;98015.66;5010910;28;20026;-34
2022/05/20 07:36:08;;;;;;;2.95;1.58;;;;;;;23.20;36.11;98002.66;5010640;28;20472;-34
2022/05/20 07:38:34;;;;;;;3.13;1.70;;;;;;;23.28;36.16;98000.28;5009380;28;20041;-37
2022/05/20 07:41:00;;;;;;;3.30;1.50;;;;;;;23.23;35.92;98006.47;5010938;28;20040;-35
2022/05/20 07:43:26;;;;;;;2.85;1.83;;;;;;;23.47;35.61;98017.53;5010991;28;20083;-35
2022/05/20 07:45:53;;;;;;;1.92;1.42;;;;;;;23.51;35.50;98018.13;5010748;28;20022;-33
2022/05/20 07:48:19;;;;;;;2.10;1.33;;;;;;;23.43;35.74;98016.94;5010705;28;20061;-38
2022/05/20 07:50:48;;;;;;;2.50;1.52;;;;;;;23.56;35.12;98023.78;5013879;28;20377;-35
2022/05/20 07:53:20;;;;;;;4.40;2.35;;;;;;;23.58;35.44;98013.00;5014204;28;20385;-35
2022/05/20 07:55:53;;;;;;;3.13;1.70;;;;;;;23.74;35.33;98022.81;5014187;28;20457;-33
2022/05/20 07:58:22;;;;;;;2.67;1.77;;;;;;;23.63;35.22;98025.38;5014179;28;20060;-33
2022/05/20 08:00:48;;;;;;;3.15;1.70;;;;;;;23.60;35.38;98020.81;5045507;28;20527;-33
2022/05/20 08:04:52;;;;;;;2.47;1.30;;;;;;;23.01;35.90;98023.38;5014033;28;20038;-34
2022/05/20 08:05:59;;;;;;;2.25;1.70;;;;;;;23.40;35.32;98024.19;5013840;28;20156;-33
2022/05/20 08:08:25;;;;;;;2.42;1.60;;;;;;;23.25;35.68;98026.91;5013977;28;20116;-37
2022/05/20 08:10:50;;;;;;;2.50;1.83;;;;;;;22.99;35.83;98025.09;5013785;28;20030;-32
2022/05/20 08:13:21;;;;;;;3.28;1.75;;;;;;;22.42;35.47;98030.56;5013535;28;20538;-32
2022/05/20 08:15:47;;;;;;;4.40;1.60;;;;;;;22.29;36.55;98028.00;5014764;28;20020;-34
2022/05/20 08:18:13;;;;;;;5.65;2.35;;;;;;;22.82;35.60;98022.75;5015604;28;20022;-34
2022/05/20 08:20:38;;;;;;;5.18;1.27;;;;;;;23.15;34.98;98028.19;5015402;28;20046;-34
2022/05/20 08:23:04;;;;;;;3.85;1.88;;;;;;;23.27;35.31;98032.72;5015608;28;20109;-33
2022/05/20 08:25:30;;;;;;;1.63;1.52;;;;;;;23.17;35.28;98036.81;5015893;28;20034;-33
2022/05/20 08:27:55;;;;;;;4.60;1.80;;;;;;;23.40;35.01;98032.47;5015658;28;20069;-33
2022/05/20 08:30:24;;;;;;;2.55;1.73;;;;;;;23.31;35.21;98026.25;5015770;28;20396;-34
2022/05/20 08:32:50;;;;;;;3.75;1.60;;;;;;;23.47;35.21;98020.28;5015516;28;20481;-33
2022/05/20 08:35:16;;;;;;;5.40;1.50;;;;;;;23.36;35.01;98022.84;5015700;28;20026;-33
2022/05/20 08:37:45;;;;;;;4.63;1.58;;;;;;;23.08;35.62;98022.28;5015491;28;20080;-33
2022/05/20 08:40:13;;;;;;;3.38;1.55;;;;;;;23.13;35.67;98024.38;5015240;28;20040;-33
2022/05/20 08:42:40;;;;;;;4.53;1.67;;;;;;;22.99;35.77;98020.34;5015369;28;20487;-33
2022/05/20 08:45:07;;;;;;;2.63;1.60;;;;;;;23.22;35.67;98027.88;5015563;28;20112;-34
2022/05/20 08:47:42;;;;;;;3.00;1.63;;;;;;;23.27;35.72;98015.34;5015114;28;20080;-33
2022/05/20 08:50:13;;;;;;;3.88;1.60;;;;;;;23.21;36.08;98017.25;5015573;28;20396;-33
2022/05/20 08:52:39;;;;;;;6.10;1.90;;;;;;;23.28;35.85;98019.66;5015275;28;20049;-33
2022/05/20 08:55:05;;;;;;;3.35;1.80;;;;;;;23.09;36.16;98019.03;5015288;28;20061;-33
2022/05/20 08:57:33;;;;;;;4.70;1.50;;;;;;;23.17;36.46;98025.75;5015188;28;20477;-34
2022/05/20 09:00:00;;;;;;;5.10;1.55;;;;;;;23.26;36.22;98024.91;5014660;28;20061;-33
2022/05/20 09:02:25;;;;;;;3.08;1.88;;;;;;;23.42;36.22;98015.41;5015095;28;20045;-34
2022/05/20 09:04:51;;;;;;;3.03;1.52;;;;;;;23.45;36.14;98018.00;5015055;28;20017;-33
2022/05/20 09:07:19;;;;;;;2.55;1.55;;;;;;;23.41;36.02;98022.16;5015032;28;20033;-33
2022/05/20 09:09:54;;;;;;;6.70;1.80;;;;;;;23.32;36.24;98017.47;5015131;28;20029;-33
2022/05/20 09:12:31;;;;;;;5.60;1.73;;;;;;;23.17;35.83;98022.19;5014674;28;20057;-35
2022/05/20 09:18:00;;;;;;;4.65;1.65;;;;;;;23.47;36.16;98014.75;5014938;28;20028;-32
2022/05/20 09:20:26;;;;;;;5.25;2.15;;;;;;;23.33;36.28;98019.00;5014610;28;20053;-33
2022/05/20 09:22:59;;;;;;;3.58;1.65;;;;;;;23.50;36.06;98014.56;5014646;28;20026;-33
2022/05/20 09:25:28;;;;;;;3.13;1.90;;;;;;;23.55;35.75;98011.16;5014432;28;20037;-33
2022/05/20 09:28:14;;;;;;;5.38;2.08;;;;;;;23.40;36.49;98015.88;5014493;28;20487;-33
2022/05/20 09:30:42;;;;;;;3.15;1.80;;;;;;;23.27;36.24;98007.81;5014791;28;20034;-32
2022/05/20 09:33:30;;;;;;;2.42;1.73;;;;;;;23.48;36.26;98013.50;5014327;28;20026;-33
2022/05/20 09:36:01;;;;;;;4.50;2.17;;;;;;;23.46;36.43;98008.44;5014499;28;20026;-34
2022/05/20 09:38:41;;;;;;;4.13;1.48;;;;;;;23.53;35.73;98001.78;5014358;28;20030;-33
2022/05/20 09:41:14;;;;;;;3.92;1.50;;;;;;;23.58;35.76;98007.44;5014436;28;20104;-33
2022/05/20 09:43:43;;;;;;;3.53;1.70;;;;;;;23.59;35.97;98002.69;5014428;28;20504;-33
2022/05/20 09:46:54;;;;;;;3.35;1.60;;;;;;;23.58;35.83;98004.69;5014122;28;20030;-32
2022/05/20 09:49:31;;;;;;;5.75;2.35;;;;;;;23.14;36.21;98001.00;5009392;28;20034;-33
2022/05/20 09:52:00;;;;;;;2.90;1.27;;;;;;;23.11;35.81;97991.66;5014541;28;20026;-31
2022/05/20 09:54:36;;;;;;;2.63;1.60;;;;;;;23.20;36.34;97991.59;5014260;28;20054;-35
2022/05/20 09:57:11;;;;;;;5.50;1.73;;;;;;;23.33;35.58;98001.63;5014082;28;20034;-32
2022/05/20 09:59:52;;;;;;;5.72;1.67;;;;;;;23.27;34.74;97996.75;5014149;28;20053;-32
2022/05/20 10:02:40;;;;;;;2.72;1.80;;;;;;;23.35;35.71;97999.94;5014000;28;20448;-32
2022/05/20 10:05:11;;;;;;;3.20;1.73;;;;;;;23.54;35.87;97993.00;5014046;28;20527;-32
2022/05/20 10:08:04;;;;;;;3.88;1.58;;;;;;;23.51;34.77;97995.97;5013953;28;20594;-32
2022/05/20 10:10:37;;;;;;;5.35;1.58;;;;;;;23.51;35.49;97993.19;5013826;28;20034;-33
2022/05/20 10:13:04;;;;;;;;;;;;;;;23.44;35.54;97991.53;5011237;28;20120;-33
2022/05/20 10:15:44;;;;;;;4.05;1.50;;;;;;;23.51;35.19;97987.66;5011932;28;19917;-32
2022/05/20 10:18:18;;;;;;;4.07;1.65;;;;;;;23.72;35.31;97977.47;5014000;28;20018;-32
2022/05/20 10:20:55;;;;;;;5.10;1.63;;;;;;;23.87;35.45;97981.75;5013771;28;20096;-32
2022/05/20 10:23:36;;;;;;;3.15;2.10;;;;;;;23.84;35.34;97984.72;5013950;28;20424;-32
2022/05/20 10:26:50;;;;;;;2.95;1.50;;;;;;;23.95;35.49;97971.84;5013471;28;20028;-33
2022/05/20 10:32:36;;;;;;;2.97;1.48;;;;;;;23.98;35.31;97970.13;4992411;28;19917;-33
2022/05/20 10:35:09;;;;;;;3.60;1.70;;;;;;;23.96;35.53;97967.06;4992090;28;20118;-34
2022/05/20 10:38:09;;;;;;;3.55;1.85;;;;;;;23.99;35.20;97964.06;4991971;28;20040;-32
2022/05/20 10:40:38;;;;;;;4.93;1.45;;;;;;;23.99;35.10;97960.53;4992296;28;20022;-34
2022/05/20 10:43:23;;;;;;;3.70;1.83;;;;;;;23.99;35.25;97974.38;4991944;28;20677;-34
2022/05/20 10:49:19;;;;;;;3.90;1.58;;;;;;;23.92;35.14;97961.69;4992235;28;20045;-32
2022/05/20 10:52:05;;;;;;;3.72;1.70;;;;;;;23.89;35.58;97965.41;4990011;28;20030;-33
2022/05/20 10:54:49;;;;;;;2.40;1.50;;;;;;;23.94;35.67;97955.69;4991621;28;20034;-33
2022/05/20 10:57:36;;;;;;;4.65;1.50;;;;;;;23.82;35.59;97953.97;4991789;28;20389;-33
2022/05/20 11:00:08;;;;;;;2.65;1.40;;;;;;;23.92;35.44;97956.16;4991821;28;20030;-34
2022/05/20 11:02:36;;;;;;;3.00;1.98;;;;;;;24.02;35.23;97958.81;4991866;28;20033;-32
2022/05/20 11:05:11;;;;;;;5.13;1.63;;;;;;;24.05;35.38;97955.09;4991294;28;20042;-34
2022/05/20 11:07:47;;;;;;;5.22;1.60;;;;;;;23.98;35.31;97951.44;4992692;28;20026;-32
2022/05/20 11:10:38;;;;;;;2.53;1.80;;;;;;;24.03;35.36;97943.72;5013526;28;20030;-34
2022/05/20 11:13:29;;;;;;;3.05;1.85;;;;;;;24.00;35.30;97950.97;5013163;28;20365;-33
2022/05/20 11:16:31;;;;;;;3.45;1.52;;;;;;;23.91;35.74;97940.78;5013434;28;20021;-33
2022/05/20 11:19:27;;;;;;;6.53;1.85;;;;;;;23.90;35.91;97944.03;5013026;28;20033;-34
2022/05/20 11:22:30;;;;;;;3.63;1.60;;;;;;;23.88;35.84;97944.50;5013058;28;20042;-33
2022/05/20 11:25:01;;;;;;;3.58;1.83;;;;;;;23.87;35.73;97940.19;5016614;28;20117;-32
2022/05/20 11:27:47;;;;;;;4.88;1.70;;;;;;;23.93;35.58;97931.97;5016629;28;20018;-35
2022/05/20 11:30:30;;;;;;;3.78;1.50;;;;;;;23.96;35.64;97925.50;5017031;28;20041;-33
2022/05/20 11:33:01;;;;;;;2.55;1.55;;;;;;;23.86;35.85;97932.38;5032033;28;20491;-32
2022/05/20 11:35:59;;;;;;;6.07;1.80;;;;;;;23.96;35.78;97926.25;5032298;28;20423;-34
2022/05/20 11:38:40;;;;;;;4.93;1.63;;;;;;;23.99;35.91;97933.59;5017060;28;20033;-33
2022/05/20 11:41:25;;;;;;;3.92;1.63;;;;;;;23.95;35.76;97921.94;5016662;28;20503;-33
2022/05/20 11:44:19;;;;;;;4.22;1.80;;;;;;;23.96;35.91;97925.50;5016412;28;20033;-34
2022/05/20 11:47:20;;;;;;;2.70;1.60;;;;;;;23.89;35.74;97928.63;5016597;28;20022;-32
2022/05/20 11:50:27;;;;;;;2.22;1.70;;;;;;;23.96;35.93;97929.03;4980739;28;20046;-33
2022/05/20 11:52:58;;;;;;;4.68;1.65;;;;;;;24.02;35.59;97917.25;5002353;28;20496;-32
2022/05/20 11:56:00;;;;;;;3.22;1.77;;;;;;;23.86;35.81;97913.72;5031722;28;20434;-32
2022/05/20 11:58:37;;;;;;;4.03;1.70;;;;;;;23.86;35.91;97907.44;5016203;28;20384;-34
2022/05/20 12:01:06;;;;;;;1.73;1.45;;;;;;;23.93;36.06;97913.34;5016153;28;20105;-32
2022/05/20 12:04:07;;;;;;;4.30;2.03;;;;;;;23.94;35.80;97914.88;5016301;28;20551;-32
2022/05/20 12:06:23;;;;;;;4.88;1.60;;;;;;;24.00;36.07;97903.88;5015985;28;20438;-32
2022/05/20 12:08:55;;;;;;;5.50;1.65;;;;;;;24.00;35.87;97903.88;5016056;28;20022;-34
2022/05/20 12:11:25;;;;;;;6.22;1.80;;;;;;;23.96;36.00;97901.31;5016291;28;20075;-32
2022/05/20 12:14:01;;;;;;;9.82;2.15;;;;;;;24.04;35.93;97895.38;5016080;28;20061;-32
2022/05/20 12:16:28;;;;;;;8.30;2.15;;;;;;;23.92;36.12;97895.19;5015888;28;20045;-33
2022/05/20 12:24:35;;;;;;;15.55;2.78;;;;;;;24.05;35.92;97892.13;5016185;28;20103;-34
2022/05/20 12:27:02;;;;;;;6.68;2.20;;;;;;;23.95;36.01;97894.25;5015984;28;20037;-32
2022/05/20 12:29:43;;;;;;;8.25;2.55;;;;;;;24.12;36.00;97885.41;5015683;28;20034;-32
2022/05/20 12:32:15;;;;;;;9.38;2.90;;;;;;;24.09;35.92;97891.94;5015639;28;20033;-32
2022/05/20 12:34:41;;;;;;;9.00;2.72;;;;;;;24.09;35.93;97895.47;5014773;28;20475;-32
2022/05/20 12:37:07;;;;;;;6.88;2.92;;;;;;;24.20;35.65;97881.00;5015522;28;20435;-33
2022/05/20 12:39:51;;;;;;;4.80;2.70;;;;;;;24.11;35.77;97867.25;5015465;28;20026;-32
2022/05/20 12:42:24;;;;;;;6.22;2.75;;;;;;;24.06;35.98;97881.78;5015044;28;20384;-34
2022/05/20 12:44:49;;;;;;;;;;;;;;;24.15;36.07;97873.34;5015484;28;20025;-33
2022/05/20 12:47:31;;;;;;;8.48;2.47;;;;;;;24.14;35.92;97874.59;5015582;28;19964;-33
2022/05/20 12:50:08;;;;;;;5.07;2.20;;;;;;;24.19;35.82;97880.22;5015633;28;20030;-32
2022/05/20 12:52:59;;;;;;;5.22;2.20;;;;;;;24.10;35.42;97860.19;5015439;28;20022;-34
2022/05/20 12:55:37;;;;;;;7.03;2.28;;;;;;;24.18;35.52;97866.84;5015346;28;20029;-32
2022/05/20 12:58:05;;;;;;;5.63;2.30;;;;;;;24.21;35.41;97860.34;5015274;28;20107;-32
2022/05/20 13:00:44;;;;;;;3.45;2.13;;;;;;;24.23;35.13;97864.16;5015618;28;20025;-34
2022/05/20 13:03:24;;;;;;;4.15;1.70;;;;;;;24.10;35.25;97863.72;5015309;28;20054;-34
2022/05/20 13:05:58;;;;;;;6.22;1.73;;;;;;;24.15;35.29;97865.03;5014970;28;20560;-33
2022/05/20 13:08:37;;;;;;;10.38;2.60;;;;;;;24.17;35.12;97860.53;5013186;28;20032;-32
2022/05/20 13:11:11;;;;;;;3.42;1.73;;;;;;;24.21;35.02;97854.81;5012667;28;20037;-33
2022/05/20 13:13:37;;;;;;;3.03;1.67;;;;;;;24.21;34.97;97863.13;5014994;28;20029;-32
2022/05/20 13:16:05;;;;;;;4.43;2.00;;;;;;;24.25;35.05;97866.47;5014828;28;20022;-33
2022/05/20 13:18:34;;;;;;;4.18;1.63;;;;;;;24.28;35.16;97859.97;5030338;28;20068;-33
2022/05/20 13:21:06;;;;;;;3.53;2.55;;;;;;;24.34;34.85;97856.03;5014584;28;20046;-33
2022/05/20 13:23:40;;;;;;;5.70;1.80;;;;;;;24.21;34.91;97850.03;5014903;28;20033;-32
2022/05/20 13:26:18;;;;;;;2.70;1.73;;;;;;;24.24;34.95;97851.06;5014699;28;20026;-34
2022/05/20 13:28:43;;;;;;;4.05;1.80;;;;;;;24.18;35.21;97856.53;5014697;28;20036;-33
2022/05/20 13:31:18;;;;;;;5.22;1.67;;;;;;;24.23;35.05;97857.88;5014635;28;20034;-33
2022/05/20 13:33:43;;;;;;;2.80;1.50;;;;;;;24.23;35.01;97852.34;5014268;28;20058;-33
2022/05/20 13:36:17;;;;;;;5.72;2.03;;;;;;;24.33;34.81;97842.66;5014392;28;20050;-33
2022/05/20 13:38:47;;;;;;;4.38;1.75;;;;;;;24.34;34.67;97833.84;5014487;28;20109;-32
2022/05/20 13:41:13;;;;;;;3.10;1.60;;;;;;;24.30;34.85;97841.59;5014530;28;20030;-32
2022/05/20 13:43:40;;;;;;;2.40;1.55;;;;;;;24.24;34.94;97839.97;5014438;28;20018;-33
2022/05/20 13:49:13;;;;;;;2.90;1.65;;;;;;;24.29;34.87;97844.84;5004521;28;20104;-33
2022/05/20 13:51:44;;;;;;;3.70;1.60;;;;;;;24.18;34.89;97837.13;5027420;28;20018;-33
2022/05/20 13:54:13;;;;;;;2.75;1.38;;;;;;;24.15;34.98;97840.09;5011879;28;20030;-33
2022/05/20 13:56:42;;;;;;;4.10;1.50;;;;;;;24.22;35.14;97829.41;5012293;28;20018;-35
2022/05/20 13:59:28;;;;;;;4.45;1.60;;;;;;;24.21;35.09;97824.31;5011847;28;20034;-33
2022/05/20 14:02:02;;;;;;;3.15;1.60;;;;;;;24.22;34.67;97823.84;5012186;28;20465;-35
2022/05/20 14:04:42;;;;;;;4.93;1.60;;;;;;;24.25;34.97;97825.66;5012113;28;20033;-32
2022/05/20 14:07:19;;;;;;;5.40;1.52;;;;;;;24.22;34.78;97828.59;5012149;28;20060;-33
2022/05/20 14:10:00;;;;;;;3.45;1.63;;;;;;;24.32;34.88;97816.94;5011934;28;20042;-33
2022/05/20 14:12:32;;;;;;;2.85;1.42;;;;;;;24.33;34.50;97843.41;5011951;28;20018;-33
2022/05/20 14:15:02;;;;;;;4.18;1.52;;;;;;;24.36;34.64;97819.47;5012087;28;20038;-32
2022/05/20 14:17:29;;;;;;;5.80;1.35;;;;;;;24.33;34.67;97820.47;5011966;28;20079;-32
2022/05/20 14:20:00;;;;;;;2.85;1.48;;;;;;;24.31;35.00;97820.19;5011903;28;20431;-32
2022/05/20 14:22:30;;;;;;;3.40;1.52;;;;;;;24.26;34.92;97815.31;5011507;28;20095;-34
2022/05/20 14:25:03;;;;;;;2.10;1.30;;;;;;;24.28;35.13;97815.59;5010372;28;20095;-32
2022/05/20 14:27:44;;;;;;;3.40;1.48;;;;;;;24.23;34.95;97819.06;5011975;28;20037;-34
2022/05/20 14:30:56;;;;;;;3.20;1.23;;;;;;;24.31;34.85;97811.88;5011946;28;20034;-34
2022/05/20 14:33:46;;;;;;;2.50;1.38;;;;;;;24.27;34.96;97814.06;4970070;28;20039;-32
2022/05/20 14:36:13;;;;;;;5.50;1.88;;;;;;;24.32;34.79;97805.06;4970336;28;20027;-33
2022/05/20 14:38:51;;;;;;;4.22;1.35;;;;;;;24.37;34.63;97815.47;4970252;28;20509;-33
2022/05/20 14:41:21;;;;;;;2.08;1.35;;;;;;;24.25;35.04;97813.78;4962342;28;20041;-33
2022/05/20 14:44:14;;;;;;;2.38;1.33;;;;;;;24.25;35.23;97803.47;4989603;28;20112;-32
2022/05/20 14:49:37;;;;;;;2.65;1.27;;;;;;;24.37;35.04;97815.47;4989366;28;20049;-33
2022/05/20 14:52:05;;;;;;;4.32;1.40;;;;;;;24.33;35.00;97823.25;4989436;28;20456;-33
2022/05/20 14:54:38;;;;;;;4.88;1.27;;;;;;;24.40;34.88;97810.97;4973141;28;20129;-32
2022/05/20 14:57:28;;;;;;;4.22;1.40;;;;;;;24.20;35.51;97811.69;4989405;28;20035;-32
2022/05/20 15:00:08;;;;;;;7.15;1.70;;;;;;;24.19;35.11;97816.47;4993455;28;20054;-34
2022/05/20 15:02:33;;;;;;;2.25;1.30;;;;;;;24.31;35.11;97820.94;4992418;28;20587;-33
2022/05/20 15:04:59;;;;;;;2.10;1.25;;;;;;;24.18;35.45;97814.94;5013930;28;20045;-33
2022/05/20 15:07:24;;;;;;;3.40;1.20;;;;;;;24.08;35.82;97812.78;5016315;28;20372;-33
2022/05/20 15:09:54;;;;;;;2.40;1.33;;;;;;;24.12;35.58;97810.56;5016663;28;20034;-32
2022/05/20 15:12:21;;;;;;;5.57;1.75;;;;;;;24.07;35.58;97806.50;5017130;28;20030;-34
2022/05/20 15:14:48;;;;;;;2.92;1.30;;;;;;;24.18;35.30;97800.31;5017146;28;20029;-33
2022/05/20 15:17:19;;;;;;;3.85;2.03;;;;;;;24.09;35.60;97806.00;5017134;28;20029;-33
2022/05/20 15:19:49;;;;;;;4.47;1.70;;;;;;;24.17;35.59;97812.66;5017284;28;20046;-34
2022/05/20 15:22:17;;;;;;;2.13;1.33;;;;;;;24.14;35.48;97800.53;5017416;28;20053;-34
2022/05/20 15:24:46;;;;;;;4.32;1.40;;;;;;;24.19;35.53;97808.16;5017208;28;20109;-32
2022/05/20 15:27:28;;;;;;;4.70;1.60;;;;;;;24.13;35.53;97807.31;5017074;28;20431;-32
2022/05/20 15:29:55;;;;;;;3.13;1.48;;;;;;;24.08;35.54;97810.78;5016971;28;20468;-34
2022/05/20 15:35:06;;;;;;;4.18;1.35;;;;;;;24.08;35.94;97810.03;5016887;28;20056;-32
2022/05/20 15:37:37;;;;;;;4.43;1.40;;;;;;;23.92;35.99;97809.31;5016811;28;20041;-32
2022/05/20 15:40:30;;;;;;;3.88;1.40;;;;;;;23.84;36.22;97804.66;5016792;28;20149;-33
2022/05/20 15:42:57;;;;;;;2.75;1.38;;;;;;;24.04;35.74;97803.91;5016668;28;20102;-32
2022/05/20 15:45:25;;;;;;;3.22;1.45;;;;;;;23.98;36.10;97798.31;5016851;28;20543;-32
2022/05/20 15:47:53;;;;;;;1.92;1.40;;;;;;;23.88;36.27;97799.66;5031928;28;20029;-32
2022/05/20 15:50:22;;;;;;;3.10;1.55;;;;;;;23.95;35.99;97805.56;5016576;28;20101;-33
2022/05/20 15:53:02;;;;;;;2.47;1.35;;;;;;;23.98;36.03;97792.78;5031956;28;20432;-35
2022/05/20 15:55:32;;;;;;;2.83;1.20;;;;;;;23.98;36.31;97796.28;5016701;28;20532;-33
2022/05/20 15:58:05;;;;;;;2.90;1.30;;;;;;;23.96;36.15;97793.25;5016476;28;20109;-34
2022/05/20 16:00:31;;;;;;;3.70;1.58;;;;;;;24.06;36.27;97802.19;5016321;28;20026;-33
2022/05/20 16:02:57;;;;;;;2.40;1.40;;;;;;;23.87;36.44;97790.59;5016293;28;20026;-33
2022/05/20 16:05:22;;;;;;;2.53;1.58;;;;;;;24.00;36.08;97793.78;5016273;28;20068;-34
2022/05/20 16:08:00;;;;;;;3.90;1.33;;;;;;;24.03;36.45;97788.53;5016213;28;20088;-33
2022/05/20 16:10:30;;;;;;;3.40;1.60;;;;;;;24.06;36.19;97779.25;5015427;28;20021;-33
2022/05/20 16:12:55;;;;;;;3.05;1.45;;;;;;;24.06;36.36;97782.03;5014917;28;20025;-32
2022/05/20 16:15:22;;;;;;;4.70;1.30;;;;;;;24.00;36.23;97784.72;5016213;28;20101;-33
2022/05/20 16:17:48;;;;;;;3.67;1.70;;;;;;;23.99;36.41;97786.72;5016387;28;20403;-36
2022/05/20 16:20:14;;;;;;;3.05;1.60;;;;;;;24.03;36.31;97794.06;5015881;28;20030;-34
2022/05/20 16:22:41;;;;;;;3.25;1.40;;;;;;;24.08;36.34;97785.09;5015936;28;20034;-33
2022/05/20 16:25:08;;;;;;;3.38;1.40;;;;;;;24.07;36.28;97773.22;5015813;28;20106;-33
2022/05/20 16:27:40;;;;;;;2.13;1.50;;;;;;;24.06;36.46;97770.94;5015851;28;20084;-33
2022/05/20 16:30:08;;;;;;;2.77;1.30;;;;;;;24.07;36.42;97772.47;5015937;28;20057;-32
2022/05/20 16:32:33;;;;;;;2.58;1.50;;;;;;;24.08;36.42;97769.22;5015726;28;20251;-33
2022/05/20 16:34:59;;;;;;;2.47;1.40;;;;;;;23.84;36.61;97772.19;5015667;28;20356;-33
2022/05/20 16:37:24;;;;;;;3.28;1.80;;;;;;;23.83;36.90;97776.19;5015574;28;20029;-33
2022/05/20 16:39:51;;;;;;;2.38;1.50;;;;;;;23.78;36.80;97767.78;5015724;28;20030;-34
2022/05/20 16:42:17;;;;;;;1.95;1.40;;;;;;;23.88;36.73;97769.94;5015466;28;20029;-33
2022/05/20 16:44:42;;;;;;;3.70;1.60;;;;;;;23.87;36.76;97757.34;5015628;28;20396;-33
2022/05/20 16:47:08;;;;;;;4.80;1.88;;;;;;;23.97;36.41;97758.75;5015431;28;20060;-33
2022/05/20 16:49:36;;;;;;;3.97;1.73;;;;;;;23.91;36.52;97748.81;5015333;28;20122;-35
2022/05/20 16:52:08;;;;;;;3.22;1.67;;;;;;;23.84;36.95;97752.78;5015731;28;20060;-34
2022/05/20 16:54:38;;;;;;;2.65;2.03;;;;;;;23.90;36.74;97752.84;5015291;28;20100;-33
2022/05/20 17:02:35;;;;;;;11.15;2.58;;;;;;;23.36;37.40;97752.31;5014207;28;20033;-31
2022/05/20 17:05:02;;;;;;;9.10;3.53;;;;;;;23.49;37.41;97754.78;5012668;28;20041;-31